Time;durP1;ratioP1;P1;durP2;ratioP2;P2;SDS_P1;SDS_P2;PMS_P1;PMS_P2;Temp;Humidity;BMP_temperature;BMP_pressure;BME280_temperature;BME280_humidity;BME280_pressure;Samples;Min_cycle;Max_cycle;Signal;HPM_P1;HPM_P2
2023/02/14 00:00:57;;;;;;;36.30;20.83;;;4.40;99.90;;;;;;5023383;28;20060;-61
2023/02/14 00:03:24;;;;;;;39.30;20.65;;;4.30;99.90;;;;;;5023708;28;20053;-61
2023/02/14 00:05:51;;;;;;;40.58;21.70;;;4.30;99.90;;;;;;5023850;28;20049;-62
2023/02/14 00:08:18;;;;;;;43.75;23.17;;;4.30;99.90;;;;;;5024155;28;20148;-64
2023/02/14 00:10:45;;;;;;;41.17;22.17;;;4.30;99.90;;;;;;5023988;28;20133;-61
2023/02/14 00:13:12;;;;;;;38.05;22.60;;;4.30;99.90;;;;;;5025752;28;20440;-61
2023/02/14 00:15:38;;;;;;;42.75;21.35;;;4.30;99.90;;;;;;5028011;28;20567;-62
2023/02/14 00:18:05;;;;;;;41.40;21.60;;;4.30;99.90;;;;;;5027944;28;20056;-62
2023/02/14 00:20:32;;;;;;;42.28;22.65;;;4.30;99.90;;;;;;5027887;28;20057;-61
2023/02/14 00:22:59;;;;;;;40.92;21.58;;;4.30;99.90;;;;;;5028015;28;20045;-62
2023/02/14 00:25:26;;;;;;;39.30;20.60;;;4.30;99.90;;;;;;5027021;28;20089;-62
2023/02/14 00:27:54;;;;;;;40.38;22.00;;;4.30;99.90;;;;;;5027817;28;20890;-60
2023/02/14 00:30:21;;;;;;;42.80;21.40;;;4.20;99.90;;;;;;5027674;28;20099;-61
2023/02/14 00:32:48;;;;;;;40.85;21.88;;;4.20;99.90;;;;;;5009905;28;20061;-63
2023/02/14 00:35:15;;;;;;;41.28;22.30;;;4.10;99.90;;;;;;5009437;28;20053;-62
2023/02/14 00:37:41;;;;;;;40.40;22.98;;;4.10;99.90;;;;;;5026886;28;20050;-62
2023/02/14 00:40:08;;;;;;;43.13;22.48;;;4.10;99.90;;;;;;5029500;28;20530;-60
2023/02/14 00:42:35;;;;;;;43.40;22.35;;;4.00;99.90;;;;;;5029774;28;20045;-63
2023/02/14 00:45:02;;;;;;;43.25;23.15;;;4.10;99.90;;;;;;5028357;28;20049;-62
2023/02/14 00:47:29;;;;;;;44.53;22.92;;;4.00;99.90;;;;;;5030739;28;20064;-60
2023/02/14 00:50:01;;;;;;;43.00;23.02;;;4.00;99.90;;;;;;5030558;28;20117;-60
2023/02/14 00:52:29;;;;;;;44.55;22.10;;;4.10;99.90;;;;;;5030340;28;20061;-60
2023/02/14 00:54:56;;;;;;;41.55;21.45;;;4.00;99.90;;;;;;5029617;28;20045;-60
2023/02/14 00:57:22;;;;;;;46.63;23.00;;;4.00;99.90;;;;;;4993972;28;20177;-60
2023/02/14 00:59:49;;;;;;;44.28;23.65;;;4.00;99.90;;;;;;5029496;28;20052;-60
2023/02/14 01:02:16;;;;;;;41.15;23.08;;;4.10;99.90;;;;;;5012653;28;20054;-60
2023/02/14 01:04:43;;;;;;;43.53;22.05;;;4.00;99.90;;;;;;5029508;28;20553;-61
2023/02/14 01:07:09;;;;;;;46.35;23.70;;;4.00;99.90;;;;;;5029770;28;20144;-61
2023/02/14 01:09:36;;;;;;;43.83;23.08;;;3.90;99.90;;;;;;5029729;28;20064;-60
2023/02/14 01:12:03;;;;;;;40.42;22.27;;;3.90;99.90;;;;;;5030106;28;20053;-61
2023/02/14 01:14:30;;;;;;;38.92;20.73;;;3.90;99.90;;;;;;5029592;28;20049;-61
2023/02/14 01:16:57;;;;;;;48.33;22.55;;;3.90;99.90;;;;;;5030304;28;20073;-58
2023/02/14 01:19:24;;;;;;;40.20;20.83;;;3.90;99.90;;;;;;5030045;28;20407;-61
2023/02/14 01:21:51;;;;;;;45.03;23.42;;;3.90;99.90;;;;;;5029888;28;20504;-60
2023/02/14 01:24:18;;;;;;;40.33;21.70;;;3.80;99.90;;;;;;5028833;28;20057;-61
2023/02/14 01:26:44;;;;;;;38.65;21.00;;;3.70;99.90;;;;;;5029554;28;20500;-63
2023/02/14 01:29:11;;;;;;;41.92;22.13;;;3.70;99.90;;;;;;5030087;28;20046;-62
2023/02/14 01:31:38;;;;;;;43.67;20.83;;;3.70;99.90;;;;;;5030243;28;20057;-60
2023/02/14 01:34:05;;;;;;;39.25;21.98;;;3.70;99.90;;;;;;5029685;28;20189;-61
2023/02/14 01:36:35;;;;;;;36.80;20.50;;;3.60;99.90;;;;;;5029338;28;20500;-60
2023/02/14 01:39:04;;;;;;;39.30;20.60;;;3.60;99.90;;;;;;5029933;28;20049;-61
2023/02/14 01:41:32;;;;;;;39.20;21.67;;;3.60;99.90;;;;;;5029598;28;20055;-61
2023/02/14 01:44:01;;;;;;;42.22;21.50;;;3.60;99.90;;;;;;5012185;28;20445;-61
2023/02/14 01:46:29;;;;;;;39.72;21.50;;;3.60;99.90;;;;;;5029339;28;20481;-61
2023/02/14 01:49:03;;;;;;;41.30;21.90;;;3.50;99.90;;;;;;5030157;28;20077;-61
2023/02/14 01:51:30;;;;;;;38.95;21.02;;;3.50;99.90;;;;;;5011421;28;20046;-61
2023/02/14 01:53:56;;;;;;;38.92;19.73;;;3.50;99.90;;;;;;5011437;28;20684;-61
2023/02/14 01:56:27;;;;;;;38.95;21.25;;;3.40;99.90;;;;;;4995218;28;20523;-62
2023/02/14 01:58:55;;;;;;;42.70;20.88;;;3.80;99.90;;;;;;5012606;28;20169;-61
2023/02/14 02:01:22;;;;;;;41.20;20.27;;;3.40;99.90;;;;;;5011610;28;20045;-61
2023/02/14 02:03:54;;;;;;;38.70;22.05;;;3.30;99.90;;;;;;5011441;28;20084;-61
2023/02/14 02:06:37;;;;;;;42.33;21.70;;;3.30;99.90;;;;;;4994562;28;20049;-61
2023/02/14 02:09:34;;;;;;;39.07;18.63;;;3.30;99.90;;;;;;4992223;28;20133;-61
2023/02/14 02:12:01;;;;;;;33.15;18.23;;;3.30;99.90;;;;;;5019676;28;20484;-62
2023/02/14 02:14:28;;;;;;;32.75;17.63;;;3.30;99.90;;;;;;5028712;28;20042;-61
2023/02/14 02:17:07;;;;;;;35.42;20.02;;;3.20;99.90;;;;;;5028736;28;20041;-61
2023/02/14 02:19:46;;;;;;;38.47;19.33;;;3.20;99.90;;;;;;5029098;28;20060;-61
2023/02/14 02:22:18;;;;;;;39.45;19.75;;;3.20;99.90;;;;;;5028833;28;20049;-61
2023/02/14 02:24:48;;;;;;;40.38;20.02;;;3.20;99.90;;;;;;5028211;28;20676;-60
2023/02/14 02:27:37;;;;;;;36.92;20.77;;;3.30;99.90;;;;;;5027979;28;20053;-61
2023/02/14 02:30:28;;;;;;;42.33;21.27;;;3.30;99.90;;;;;;5011154;28;20128;-59
2023/02/14 02:33:05;;;;;;;41.88;21.08;;;3.30;99.90;;;;;;5010612;28;20045;-62
2023/02/14 02:35:35;;;;;;;46.88;24.85;;;3.30;99.90;;;;;;5027433;28;20059;-60
2023/02/14 02:38:13;;;;;;;47.95;23.33;;;3.40;99.90;;;;;;5025415;28;20412;-61
2023/02/14 02:41:11;;;;;;;43.95;21.60;;;3.40;99.90;;;;;;5006117;28;20289;-61
2023/02/14 02:43:53;;;;;;;46.70;23.52;;;3.40;99.90;;;;;;5007346;28;20342;-60
2023/02/14 02:46:47;;;;;;;45.95;22.45;;;3.40;99.90;;;;;;5010564;28;20124;-61
2023/02/14 02:53:01;;;;;;;43.70;22.77;;;3.50;99.90;;;;;;5028523;28;20335;-61
2023/02/14 02:58:36;;;;;;;47.20;24.48;;;3.60;99.90;;;;;;5015977;28;20056;-61
2023/02/14 03:01:10;;;;;;;49.55;25.00;;;3.60;99.90;;;;;;4991306;28;20089;-62
2023/02/14 03:06:22;;;;;;;46.75;24.95;;;3.60;99.90;;;;;;4999526;28;20051;-60
2023/02/14 03:08:49;;;;;;;49.45;26.40;;;3.70;99.90;;;;;;5027756;28;20160;-61
2023/02/14 03:11:15;;;;;;;48.40;24.60;;;3.70;99.90;;;;;;5028032;28;20219;-61
2023/02/14 03:13:46;;;;;;;48.92;25.60;;;3.70;99.90;;;;;;5009913;28;20412;-60
2023/02/14 03:16:26;;;;;;;47.72;24.92;;;4.10;99.90;;;;;;5010308;28;20107;-61
2023/02/14 03:19:09;;;;;;;45.28;24.35;;;3.70;99.90;;;;;;5028104;28;20047;-61
2023/02/14 03:21:40;;;;;;;46.83;24.02;;;3.70;99.90;;;;;;5027813;28;20088;-61
2023/02/14 03:24:27;;;;;;;47.85;23.48;;;3.60;99.90;;;;;;5010247;28;20085;-61
2023/02/14 03:27:05;;;;;;;44.05;23.05;;;3.60;99.90;;;;;;5013019;28;20059;-61
2023/02/14 03:29:42;;;;;;;43.67;23.85;;;3.50;99.90;;;;;;5027551;28;20071;-61
2023/02/14 03:32:24;;;;;;;48.08;25.08;;;3.40;99.90;;;;;;5028054;28;20057;-60
2023/02/14 03:34:59;;;;;;;42.55;23.02;;;3.40;99.90;;;;;;4989845;28;20050;-61
2023/02/14 03:37:29;;;;;;;42.13;22.33;;;3.40;99.90;;;;;;5010222;28;20055;-60
2023/02/14 03:40:09;;;;;;;45.83;24.38;;;3.40;99.90;;;;;;5009324;28;20080;-61
2023/02/14 03:42:50;;;;;;;43.15;24.17;;;3.40;99.90;;;;;;5009923;28;20085;-61
2023/02/14 03:45:26;;;;;;;44.97;23.65;;;3.30;99.90;;;;;;4993894;28;20052;-61
2023/02/14 03:47:55;;;;;;;41.30;23.35;;;3.30;99.90;;;;;;5008949;28;20049;-61
2023/02/14 03:50:22;;;;;;;50.78;25.65;;;3.30;99.90;;;;;;5009683;28;20476;-61
2023/02/14 03:52:49;;;;;;;40.75;21.75;;;3.20;99.90;;;;;;4990081;28;20053;-61
2023/02/14 03:55:18;;;;;;;43.58;24.67;;;3.20;99.90;;;;;;4985849;28;20054;-60
2023/02/14 03:57:47;;;;;;;39.15;21.80;;;3.10;99.90;;;;;;5006104;28;20050;-61
2023/02/14 04:00:14;;;;;;;51.50;22.83;;;3.10;99.90;;;;;;5005943;28;20050;-61
2023/02/14 04:02:53;;;;;;;42.72;23.45;;;3.10;99.90;;;;;;5007444;28;20132;-61
2023/02/14 04:05:22;;;;;;;39.58;22.35;;;3.10;99.90;;;;;;4986927;28;20048;-61
2023/02/14 04:07:55;;;;;;;41.13;23.20;;;3.00;99.90;;;;;;5006116;28;20053;-61
2023/02/14 04:10:21;;;;;;;45.20;23.65;;;3.00;99.90;;;;;;5006890;28;20080;-61
2023/02/14 04:12:48;;;;;;;52.00;25.48;;;3.00;99.90;;;;;;5006216;28;20050;-61
2023/02/14 04:15:15;;;;;;;40.60;22.48;;;2.90;99.90;;;;;;5006985;28;20561;-60
2023/02/14 04:20:28;;;;;;;38.30;22.63;;;2.90;99.90;;;;;;5007266;28;20042;-61
2023/02/14 04:22:55;;;;;;;44.17;22.85;;;2.80;99.90;;;;;;4996693;28;20104;-60
2023/02/14 04:25:21;;;;;;;41.20;23.30;;;2.80;99.90;;;;;;5007085;28;20042;-61
2023/02/14 04:27:48;;;;;;;46.13;23.63;;;2.80;99.90;;;;;;5007254;28;20078;-61
2023/02/14 04:30:16;;;;;;;46.83;23.50;;;2.80;99.90;;;;;;5007562;28;20133;-61
2023/02/14 04:32:43;;;;;;;44.70;23.17;;;2.80;99.90;;;;;;5007744;28;20336;-60
2023/02/14 04:35:10;;;;;;;43.83;22.70;;;2.80;99.90;;;;;;5007422;28;20056;-60
2023/02/14 04:37:37;;;;;;;43.85;23.70;;;2.80;99.90;;;;;;5007406;28;20038;-61
2023/02/14 04:40:04;;;;;;;46.15;23.52;;;2.80;99.90;;;;;;5007076;28;20061;-60
2023/02/14 04:42:31;;;;;;;41.00;22.67;;;2.80;99.90;;;;;;5007091;28;20046;-61
2023/02/14 04:44:58;;;;;;;39.38;22.15;;;2.80;99.90;;;;;;4987447;28;20054;-59
2023/02/14 04:47:24;;;;;;;46.88;22.85;;;2.90;99.90;;;;;;5001500;28;20064;-61
2023/02/14 04:49:51;;;;;;;46.45;23.10;;;2.70;99.90;;;;;;5007016;28;20049;-60
2023/02/14 04:52:18;;;;;;;41.15;23.05;;;2.70;99.90;;;;;;5016363;28;20060;-61
2023/02/14 04:54:44;;;;;;;41.28;23.45;;;2.80;99.90;;;;;;5026287;28;20124;-60
2023/02/14 04:57:11;;;;;;;48.50;25.25;;;2.80;99.90;;;;;;5026566;28;20050;-61
2023/02/14 04:59:38;;;;;;;38.03;22.90;;;2.70;99.90;;;;;;5027821;28;20055;-61
2023/02/14 05:02:05;;;;;;;43.90;22.35;;;2.70;99.90;;;;;;5030191;28;20049;-61
2023/02/14 05:04:32;;;;;;;51.10;24.67;;;2.70;99.90;;;;;;5030270;28;20144;-61
2023/02/14 05:06:58;;;;;;;43.30;22.58;;;2.60;99.90;;;;;;5029902;28;20041;-61
2023/02/14 05:09:25;;;;;;;49.55;25.17;;;2.50;99.90;;;;;;5029875;28;20109;-60
2023/02/14 05:11:52;;;;;;;42.85;23.42;;;2.60;99.90;;;;;;5030086;28;20049;-61
2023/02/14 05:14:18;;;;;;;48.72;23.70;;;2.60;99.90;;;;;;5029782;28;20055;-61
2023/02/14 05:16:45;;;;;;;44.38;23.20;;;2.60;99.90;;;;;;5030620;28;20156;-61
2023/02/14 05:19:12;;;;;;;48.08;22.70;;;2.50;99.90;;;;;;5029344;28;20045;-60
2023/02/14 05:21:39;;;;;;;44.90;22.02;;;2.50;99.90;;;;;;5030425;28;20049;-60
2023/02/14 05:24:06;;;;;;;48.10;23.85;;;2.50;99.90;;;;;;5029665;28;20045;-61
2023/02/14 05:26:32;;;;;;;48.25;24.55;;;2.50;99.90;;;;;;5030533;28;20080;-60
2023/02/14 05:28:59;;;;;;;41.13;22.70;;;2.50;99.90;;;;;;5030240;28;20041;-60
2023/02/14 05:31:26;;;;;;;44.70;22.50;;;2.50;99.90;;;;;;5030014;28;20075;-60
2023/02/14 05:33:52;;;;;;;47.47;21.92;;;2.50;99.90;;;;;;5029723;28;20041;-60
2023/02/14 05:36:19;;;;;;;43.72;22.42;;;2.50;99.90;;;;;;5012394;28;20042;-60
2023/02/14 05:38:46;;;;;;;44.95;23.85;;;2.50;99.90;;;;;;5030025;28;20067;-60
2023/02/14 05:41:13;;;;;;;48.55;23.83;;;2.50;99.90;;;;;;5011785;28;20410;-61
2023/02/14 05:43:39;;;;;;;62.10;25.23;;;2.30;99.90;;;;;;5011535;28;20052;-60
2023/02/14 05:46:06;;;;;;;51.15;22.05;;;2.30;99.90;;;;;;5029721;28;20049;-61
2023/02/14 05:48:33;;;;;;;49.03;25.20;;;2.30;99.90;;;;;;5029762;28;20049;-61
2023/02/14 05:51:06;;;;;;;49.78;25.67;;;2.40;99.90;;;;;;5029795;28;20049;-61
2023/02/14 05:53:33;;;;;;;52.38;24.67;;;2.40;99.90;;;;;;5009847;28;20497;-61
2023/02/14 05:56:00;;;;;;;44.72;22.48;;;2.40;99.90;;;;;;5009969;28;20379;-61
2023/02/14 05:58:26;;;;;;;44.30;23.73;;;2.40;99.90;;;;;;5009866;28;20140;-60
2023/02/14 06:00:55;;;;;;;43.35;22.15;;;2.30;99.90;;;;;;5009658;28;20074;-58
2023/02/14 06:03:21;;;;;;;41.00;22.10;;;2.30;99.90;;;;;;4992511;28;20058;-61
2023/02/14 06:05:48;;;;;;;45.08;23.42;;;2.30;99.90;;;;;;5009332;28;20052;-62
2023/02/14 06:08:15;;;;;;;44.08;23.67;;;2.30;99.90;;;;;;5009544;28;20052;-61
2023/02/14 06:10:42;;;;;;;42.88;23.42;;;2.30;99.90;;;;;;5008981;28;20061;-61
2023/02/14 06:13:09;;;;;;;42.38;21.92;;;2.30;99.90;;;;;;5009878;28;20050;-62
2023/02/14 06:15:36;;;;;;;43.22;23.80;;;2.30;99.90;;;;;;4991522;28;20052;-62
2023/02/14 06:18:03;;;;;;;40.05;22.92;;;2.30;99.90;;;;;;5009479;28;20465;-61
2023/02/14 06:20:30;;;;;;;43.22;23.33;;;2.20;99.90;;;;;;5008961;28;20050;-60
2023/02/14 06:22:57;;;;;;;44.45;24.48;;;2.30;99.90;;;;;;5009551;28;20062;-61
2023/02/14 06:25:23;;;;;;;46.30;23.80;;;2.20;99.90;;;;;;5008669;28;20528;-60
2023/02/14 06:27:50;;;;;;;42.35;20.73;;;2.40;99.90;;;;;;4991846;28;20161;-61
2023/02/14 06:30:17;;;;;;;45.60;22.88;;;2.30;99.90;;;;;;4991710;28;20046;-61
2023/02/14 06:32:44;;;;;;;43.83;22.30;;;2.20;99.90;;;;;;5009111;28;20049;-61
2023/02/14 06:35:12;;;;;;;39.90;21.63;;;2.20;99.90;;;;;;5008894;28;20046;-60
2023/02/14 06:37:40;;;;;;;39.97;21.83;;;2.20;99.90;;;;;;5009047;28;20404;-61
2023/02/14 06:40:08;;;;;;;39.00;22.10;;;2.10;99.90;;;;;;5008868;28;20046;-60
2023/02/14 06:42:35;;;;;;;52.45;25.20;;;2.20;99.90;;;;;;5008815;28;20057;-61
2023/02/14 06:45:03;;;;;;;39.30;22.08;;;2.10;99.90;;;;;;5008629;28;20125;-60
2023/02/14 06:47:30;;;;;;;42.97;22.33;;;2.10;99.90;;;;;;5008857;28;20348;-61
2023/02/14 06:50:00;;;;;;;42.33;22.23;;;2.10;99.90;;;;;;5008730;28;20046;-60
2023/02/14 06:52:27;;;;;;;43.13;21.52;;;2.10;99.90;;;;;;5019289;28;20084;-60
2023/02/14 06:54:53;;;;;;;42.80;24.55;;;2.00;99.90;;;;;;5028328;28;20120;-61
2023/02/14 06:57:20;;;;;;;44.58;21.17;;;2.10;99.90;;;;;;5028246;28;20049;-60
2023/02/14 06:59:47;;;;;;;40.30;23.05;;;2.00;99.90;;;;;;5028360;28;20042;-60
2023/02/14 07:02:13;;;;;;;45.17;23.85;;;2.00;99.90;;;;;;5028504;28;20137;-60
2023/02/14 07:04:40;;;;;;;52.75;25.75;;;2.00;99.90;;;;;;5010803;28;20322;-61
2023/02/14 07:07:07;;;;;;;50.38;25.83;;;2.10;99.90;;;;;;5027646;28;20049;-60
2023/02/14 07:09:34;;;;;;;47.65;26.15;;;2.10;99.90;;;;;;5027660;28;20484;-60
2023/02/14 07:12:00;;;;;;;46.40;24.52;;;2.10;99.90;;;;;;5027755;28;20045;-60
2023/02/14 07:14:27;;;;;;;50.83;26.48;;;2.10;99.90;;;;;;5027951;28;20045;-60
2023/02/14 07:16:54;;;;;;;44.70;23.85;;;2.20;99.90;;;;;;5027963;28;20116;-60
2023/02/14 07:19:20;;;;;;;48.03;24.13;;;2.20;99.90;;;;;;5028386;28;20530;-60
2023/02/14 07:21:47;;;;;;;49.10;25.10;;;2.20;99.90;;;;;;5027019;28;20044;-61
2023/02/14 07:24:14;;;;;;;45.00;24.50;;;2.20;99.90;;;;;;5027701;28;20140;-60
2023/02/14 07:26:41;;;;;;;51.33;23.88;;;2.20;99.90;;;;;;5010001;28;20038;-60
2023/02/14 07:29:07;;;;;;;42.10;22.83;;;2.20;99.90;;;;;;4999630;28;20084;-61
2023/02/14 07:31:34;;;;;;;49.13;26.10;;;2.10;99.90;;;;;;5027443;28;20124;-60
2023/02/14 07:34:01;;;;;;;45.03;21.38;;;2.10;99.90;;;;;;4675807;28;10000390;-61
2023/02/14 07:36:28;;;;;;;40.60;21.70;;;2.10;99.90;;;;;;5023896;28;20049;-59
2023/02/14 07:38:55;;;;;;;43.50;21.88;;;2.10;99.90;;;;;;5006268;28;20049;-58
2023/02/14 07:41:22;;;;;;;42.97;21.77;;;2.10;99.90;;;;;;5006353;28;20057;-60
2023/02/14 07:43:49;;;;;;;42.15;22.50;;;2.10;99.90;;;;;;5023611;28;20057;-61
2023/02/14 07:46:17;;;;;;;45.83;23.25;;;2.10;99.90;;;;;;5022862;28;20045;-60
2023/02/14 07:48:43;;;;;;;40.03;22.88;;;2.20;99.90;;;;;;5023556;28;20049;-60
2023/02/14 07:51:10;;;;;;;44.30;23.58;;;2.10;99.90;;;;;;5000066;28;20048;-64
2023/02/14 07:53:37;;;;;;;41.25;23.25;;;2.20;99.90;;;;;;5020564;28;20053;-62
2023/02/14 07:56:04;;;;;;;51.15;24.75;;;2.20;99.90;;;;;;5023451;28;20079;-61
2023/02/14 07:58:31;;;;;;;44.05;24.02;;;2.20;99.90;;;;;;5023562;28;20045;-62
2023/02/14 08:00:57;;;;;;;49.28;26.48;;;2.20;99.90;;;;;;5023561;28;20076;-61
2023/02/14 08:03:25;;;;;;;47.13;25.75;;;2.40;99.90;;;;;;5023594;28;20068;-61
2023/02/14 08:05:57;;;;;;;43.45;24.52;;;2.40;99.90;;;;;;5023795;28;20064;-61
2023/02/14 08:08:25;;;;;;;50.50;26.02;;;2.40;99.90;;;;;;5006706;28;20049;-60
2023/02/14 08:10:52;;;;;;;43.25;23.63;;;2.50;99.90;;;;;;5023611;28;20772;-60
2023/02/14 08:13:19;;;;;;;44.92;26.30;;;2.50;99.90;;;;;;5023393;28;20049;-61
2023/02/14 08:16:04;;;;;;;47.45;25.30;;;2.60;99.90;;;;;;5023673;28;20492;-61
2023/02/14 08:18:32;;;;;;;51.17;26.73;;;2.60;99.90;;;;;;5012152;28;20054;-60
2023/02/14 08:20:59;;;;;;;53.65;25.25;;;2.70;99.90;;;;;;5023040;28;20116;-61
2023/02/14 08:23:26;;;;;;;54.20;26.70;;;2.70;99.90;;;;;;5023242;28;20556;-60
2023/02/14 08:25:53;;;;;;;49.05;27.38;;;2.80;99.90;;;;;;5023015;28;20572;-61
2023/02/14 08:28:20;;;;;;;51.20;28.30;;;2.80;99.90;;;;;;5023491;28;20067;-61
2023/02/14 08:30:50;;;;;;;46.30;27.92;;;2.90;99.90;;;;;;5024029;28;20053;-61
2023/02/14 08:33:17;;;;;;;55.78;28.17;;;3.10;99.90;;;;;;5022772;28;20049;-61
2023/02/14 08:35:44;;;;;;;50.95;25.52;;;3.10;99.90;;;;;;5025744;28;20049;-61
2023/02/14 08:38:10;;;;;;;52.88;27.85;;;3.20;99.90;;;;;;5009735;28;20112;-60
2023/02/14 08:40:37;;;;;;;53.95;28.60;;;3.30;99.90;;;;;;5027181;28;20068;-61
2023/02/14 08:43:05;;;;;;;49.65;27.88;;;3.30;99.90;;;;;;5027335;28;20499;-61
2023/02/14 08:45:31;;;;;;;55.30;28.83;;;3.40;99.90;;;;;;5026790;28;20057;-61
2023/02/14 08:48:06;;;;;;;55.17;29.23;;;3.40;99.90;;;;;;5029036;28;20044;-61
2023/02/14 08:50:32;;;;;;;;;;;3.50;99.90;;;;;;5029096;28;20071;-61
2023/02/14 08:52:59;;;;;;;45.20;24.98;;;3.70;99.90;;;;;;5006054;28;19949;-61
2023/02/14 08:55:26;;;;;;;54.85;29.63;;;3.80;99.90;;;;;;5006486;28;20065;-61
2023/02/14 08:57:56;;;;;;;53.88;28.98;;;4.00;99.90;;;;;;5006838;28;20065;-60
2023/02/14 09:00:23;;;;;;;54.40;29.60;;;4.30;99.90;;;;;;5007196;28;20062;-61
2023/02/14 09:02:51;;;;;;;54.83;30.20;;;4.70;99.90;;;;;;5007120;28;20497;-60
2023/02/14 09:05:18;;;;;;;54.85;31.15;;;5.00;99.90;;;;;;5005554;28;20349;-61
2023/02/14 09:07:45;;;;;;;59.78;32.15;;;5.30;99.90;;;;;;5006929;28;20050;-61
2023/02/14 09:10:12;;;;;;;58.10;33.85;;;5.60;99.90;;;;;;5005621;28;20121;-61
2023/02/14 09:12:39;;;;;;;70.88;35.13;;;5.90;99.90;;;;;;5007021;28;20053;-61
2023/02/14 09:15:08;;;;;;;62.00;34.90;;;6.20;99.90;;;;;;5006834;28;20052;-61
2023/02/14 09:17:35;;;;;;;61.63;33.13;;;6.70;99.90;;;;;;5005943;28;20057;-61
2023/02/14 09:20:06;;;;;;;65.28;34.13;;;7.00;99.90;;;;;;5005680;28;20152;-61
2023/02/14 09:22:33;;;;;;;67.88;33.30;;;7.40;99.90;;;;;;5006546;28;20057;-61
2023/02/14 09:25:00;;;;;;;61.53;32.42;;;7.70;99.90;;;;;;5006466;28;20053;-61
2023/02/14 09:27:27;;;;;;;58.67;31.55;;;8.00;99.90;;;;;;5005079;28;20104;-61
2023/02/14 09:29:53;;;;;;;56.08;31.17;;;8.00;99.90;;;;;;5006669;28;20480;-62
2023/02/14 09:32:20;;;;;;;57.63;30.95;;;8.00;99.90;;;;;;5005735;28;20054;-63
2023/02/14 09:34:47;;;;;;;61.38;31.88;;;7.90;99.90;;;;;;5005349;28;20426;-61
2023/02/14 09:37:14;;;;;;;66.07;33.85;;;7.90;99.90;;;;;;5006352;28;20081;-61
2023/02/14 09:39:41;;;;;;;54.95;33.42;;;7.90;99.90;;;;;;5006441;28;20065;-62
2023/02/14 09:42:16;;;;;;;61.95;34.28;;;7.80;99.90;;;;;;5005257;28;20144;-60
2023/02/14 09:44:50;;;;;;;56.33;33.88;;;7.80;99.90;;;;;;5003868;28;20076;-60
2023/02/14 09:47:23;;;;;;;;;;;7.80;99.90;;;;;;5004936;28;20610;-61
2023/02/14 09:49:50;;;;;;;55.47;33.53;;;7.80;99.90;;;;;;4996089;28;19928;-61
2023/02/14 09:52:18;;;;;;;56.58;31.88;;;7.80;99.90;;;;;;4980323;28;20061;-60
2023/02/14 09:54:48;;;;;;;62.38;32.13;;;7.80;99.90;;;;;;4997916;28;20089;-61
2023/02/14 09:57:40;;;;;;;71.85;34.83;;;7.80;99.90;;;;;;5002823;28;20091;-62
2023/02/14 10:00:37;;;;;;;53.10;31.98;;;7.90;99.90;;;;;;4995916;28;20140;-60
2023/02/14 10:03:47;;;;;;;59.97;31.40;;;8.00;99.90;;;;;;5002169;28;20108;-59
2023/02/14 10:06:42;;;;;;;51.83;29.88;;;8.10;99.90;;;;;;4985917;28;20050;-59
2023/02/14 10:09:38;;;;;;;54.22;30.23;;;8.10;99.90;;;;;;5003359;28;20133;-60
2023/02/14 10:12:04;;;;;;;51.47;29.05;;;8.20;99.90;;;;;;5005813;28;20057;-60
2023/02/14 10:14:34;;;;;;;47.97;28.27;;;8.30;99.90;;;;;;5004662;28;20049;-60
2023/02/14 10:17:06;;;;;;;46.53;27.73;;;8.40;99.90;;;;;;5004570;28;20050;-59
2023/02/14 10:20:13;;;;;;;43.40;23.75;;;8.40;99.90;;;;;;5003518;28;20285;-59
2023/02/14 10:22:42;;;;;;;46.38;24.60;;;8.40;99.90;;;;;;4964820;28;20042;-60
2023/02/14 10:25:13;;;;;;;42.53;24.15;;;8.50;99.90;;;;;;4995319;28;20136;-61
2023/02/14 10:27:43;;;;;;;39.50;24.45;;;8.50;99.90;;;;;;5002532;28;20045;-61
2023/02/14 10:30:18;;;;;;;37.50;23.58;;;8.60;99.90;;;;;;4976365;28;20069;-61
2023/02/14 10:32:45;;;;;;;40.33;23.15;;;8.60;99.90;;;;;;5002608;28;20042;-60
2023/02/14 10:35:43;;;;;;;35.90;22.42;;;8.60;99.90;;;;;;5003200;28;20046;-61
2023/02/14 10:38:40;;;;;;;43.05;23.40;;;8.70;99.90;;;;;;5003065;28;20101;-62
2023/02/14 10:41:19;;;;;;;41.95;22.30;;;8.80;99.90;;;;;;4996986;28;20046;-60
2023/02/14 10:44:25;;;;;;;38.17;22.30;;;8.90;99.90;;;;;;5001537;28;20069;-60
2023/02/14 10:47:00;;;;;;;41.00;24.20;;;9.00;99.90;;;;;;4943561;28;20119;-61
2023/02/14 10:49:33;;;;;;;36.45;22.75;;;9.10;99.90;;;;;;4981529;28;20077;-60
2023/02/14 10:52:25;;;;;;;35.97;21.88;;;9.20;99.90;;;;;;5011363;28;20060;-61
2023/02/14 10:54:59;;;;;;;32.42;20.60;;;9.20;99.90;;;;;;5023261;28;20041;-61
2023/02/14 10:57:37;;;;;;;;;;;9.20;99.90;;;;;;4987349;28;20053;-60
2023/02/14 11:00:07;;;;;;;35.03;21.02;;;9.30;99.90;;;;;;5006251;28;19925;-61
2023/02/14 11:02:38;;;;;;;33.40;21.13;;;9.30;99.90;;;;;;5021954;28;20103;-60
2023/02/14 11:05:05;;;;;;;35.42;20.10;;;9.30;99.90;;;;;;5008386;28;20121;-60
2023/02/14 11:07:32;;;;;;;37.00;20.40;;;9.40;99.90;;;;;;5009024;28;20049;-61
2023/02/14 11:09:59;;;;;;;37.38;20.27;;;9.60;99.90;;;;;;5021100;28;20049;-60
2023/02/14 11:12:34;;;;;;;28.67;17.52;;;9.60;99.90;;;;;;4992651;28;20049;-61
2023/02/14 11:15:31;;;;;;;31.15;17.15;;;9.70;99.90;;;;;;5024422;28;20045;-59
2023/02/14 11:18:09;;;;;;;24.55;12.30;;;9.80;99.90;;;;;;5008108;28;20092;-59
2023/02/14 11:20:35;;;;;;;22.23;12.30;;;10.00;99.90;;;;;;5018747;28;20053;-59
2023/02/14 11:23:25;;;;;;;24.65;13.18;;;10.20;99.90;;;;;;5009160;28;20044;-59
2023/02/14 11:25:54;;;;;;;23.92;13.23;;;10.20;99.90;;;;;;5009397;28;20079;-60
2023/02/14 11:28:21;;;;;;;24.27;13.25;;;10.30;99.90;;;;;;5007471;28;20057;-60
2023/02/14 11:30:49;;;;;;;23.60;12.65;;;10.30;99.90;;;;;;5006939;28;20087;-60
2023/02/14 11:33:28;;;;;;;21.20;12.35;;;10.40;99.90;;;;;;5004773;28;20049;-61
2023/02/14 11:35:55;;;;;;;20.92;12.43;;;10.30;99.90;;;;;;5003847;28;20143;-60
2023/02/14 11:38:30;;;;;;;23.77;11.07;;;10.30;99.90;;;;;;5024508;28;20049;-60
2023/02/14 11:40:57;;;;;;;23.10;11.20;;;10.30;99.90;;;;;;5021863;28;20046;-61
2023/02/14 11:43:36;;;;;;;24.02;11.50;;;10.40;99.90;;;;;;5009250;28;20132;-61
2023/02/14 11:46:13;;;;;;;24.08;11.85;;;10.50;99.90;;;;;;5022702;28;20041;-60
2023/02/14 11:48:58;;;;;;;21.00;12.27;;;10.50;99.90;;;;;;5024683;28;20060;-60
2023/02/14 11:51:40;;;;;;;22.80;11.00;;;10.60;99.90;;;;;;5019523;28;20084;-60
2023/02/14 11:54:11;;;;;;;20.40;10.02;;;10.60;99.90;;;;;;5007916;28;20042;-60
2023/02/14 11:56:49;;;;;;;25.38;11.02;;;10.80;99.90;;;;;;5006073;28;20580;-61
2023/02/14 11:59:43;;;;;;;23.52;12.23;;;10.90;99.90;;;;;;5025335;28;20856;-61
2023/02/14 12:02:31;;;;;;;19.95;9.25;;;11.00;99.90;;;;;;5008093;28;20080;-60
2023/02/14 12:05:04;;;;;;;16.15;9.85;;;10.90;99.90;;;;;;5003181;28;20038;-60
2023/02/14 12:07:37;;;;;;;23.73;9.43;;;10.90;99.90;;;;;;5008238;28;20149;-61
2023/02/14 12:10:10;;;;;;;28.03;10.23;;;10.90;99.90;;;;;;5012207;28;20063;-62
2023/02/14 12:12:36;;;;;;;16.42;8.35;;;10.90;99.90;;;;;;5022119;28;20045;-60
2023/02/14 12:15:35;;;;;;;14.70;8.50;;;10.90;99.90;;;;;;5012415;28;20042;-60
2023/02/14 12:18:27;;;;;;;27.42;10.25;;;10.90;99.90;;;;;;5015276;28;20128;-60
2023/02/14 12:21:00;;;;;;;14.93;8.43;;;11.00;99.90;;;;;;5029738;28;20084;-61
2023/02/14 12:23:39;;;;;;;15.40;8.63;;;11.20;99.90;;;;;;5030248;28;20073;-61
2023/02/14 12:26:19;;;;;;;19.73;8.65;;;11.20;99.90;;;;;;5001433;28;20046;-61
2023/02/14 12:29:25;;;;;;;13.65;8.02;;;11.30;99.90;;;;;;5025697;28;20045;-60
2023/02/14 12:31:52;;;;;;;14.75;8.45;;;11.40;99.90;;;;;;5012199;28;20127;-61
2023/02/14 12:34:19;;;;;;;21.40;8.73;;;11.40;99.90;;;;;;4996507;28;20496;-61
2023/02/14 12:37:14;;;;;;;13.18;7.95;;;11.50;99.90;;;;;;5011574;28;20055;-62
2023/02/14 12:39:59;;;;;;;;;;;11.50;99.90;;;;;;4997105;28;20056;-61
2023/02/14 12:42:51;;;;;;;19.15;7.10;;;11.50;99.90;;;;;;5029001;28;19928;-63
2023/02/14 12:45:23;;;;;;;22.02;7.65;;;11.50;99.90;;;;;;5027335;28;20052;-60
2023/02/14 12:48:12;;;;;;;12.80;6.60;;;11.60;99.90;;;;;;5028618;28;20060;-63
2023/02/14 12:50:51;;;;;;;15.70;7.97;;;11.80;99.90;;;;;;5028191;28;20152;-61
2023/02/14 12:53:39;;;;;;;27.02;8.80;;;11.90;99.90;;;;;;4991576;28;20057;-61
2023/02/14 12:56:15;;;;;;;19.48;8.20;;;11.90;99.90;;;;;;4991056;28;20516;-60
2023/02/14 12:58:47;;;;;;;17.70;7.00;;;11.80;99.90;;;;;;4990647;28;20145;-61
2023/02/14 13:01:39;;;;;;;15.63;8.05;;;11.80;99.90;;;;;;5010273;28;20053;-60
2023/02/14 13:04:24;;;;;;;23.05;7.93;;;11.80;99.90;;;;;;4659168;28;10000211;-61
2023/02/14 13:06:57;;;;;;;13.52;7.47;;;11.90;99.90;;;;;;5005346;28;20490;-61
2023/02/14 13:09:45;;;;;;;20.83;8.02;;;12.10;99.90;;;;;;5007031;28;20065;-62
2023/02/14 13:12:37;;;;;;;11.32;6.60;;;12.10;99.90;;;;;;4993583;28;20038;-61